Time;durP1;ratioP1;P1;durP2;ratioP2;P2;SDS_P1;SDS_P2;PMS_P1;PMS_P2;Temp;Humidity;BMP_temperature;BMP_pressure;BME280_temperature;BME280_humidity;BME280_pressure;Samples;Min_cycle;Max_cycle;Signal;HPM_P1;HPM_P2
2023/12/15 00:00:20;;;;;;;63.90;28.75;;;;;;;-144.73;100.00;54699.16;5015787;28;20026;-76
2023/12/15 00:02:52;;;;;;;56.13;27.70;;;;;;;-144.73;100.00;54744.31;4982213;28;20042;-76
2023/12/15 00:05:29;;;;;;;69.10;28.10;;;;;;;-144.73;100.00;54711.47;4989669;28;20037;-76
2023/12/15 00:07:55;;;;;;;65.80;28.55;;;;;;;-144.73;100.00;54678.63;4979207;28;20062;-75
2023/12/15 00:10:20;;;;;;;65.75;30.17;;;;;;;-144.73;100.00;54707.38;4979707;28;20027;-76
2023/12/15 00:12:46;;;;;;;76.53;31.92;;;;;;;-144.73;100.00;54682.75;4979347;28;20034;-76
2023/12/15 00:15:14;;;;;;;77.40;31.50;;;;;;;-144.73;100.00;54711.47;4981527;28;20026;-76
2023/12/15 00:17:39;;;;;;;83.20;30.60;;;;;;;-144.73;100.00;54693.00;4975756;28;20093;-76
2023/12/15 00:20:05;;;;;;;81.47;31.35;;;;;;;-144.73;100.00;54682.75;4975944;28;20031;-76
2023/12/15 00:22:31;;;;;;;74.43;29.60;;;;;;;-144.73;100.00;54711.47;4983249;28;20514;-76
2023/12/15 00:24:56;;;;;;;73.97;29.55;;;;;;;-144.73;100.00;54674.53;4985934;28;20057;-76
2023/12/15 00:27:22;;;;;;;81.93;31.58;;;;;;;-144.73;100.00;54723.81;4978673;28;20086;-77
2023/12/15 00:29:47;;;;;;;90.78;32.65;;;;;;;-144.73;100.00;54654.00;4988847;28;20105;-76
2023/12/15 00:32:15;;;;;;;91.80;34.13;;;;;;;-144.73;100.00;54707.38;4980097;28;20034;-76
2023/12/15 00:34:40;;;;;;;88.97;32.35;;;;;;;-144.73;100.00;54715.59;4981940;28;20023;-76
2023/12/15 00:37:06;;;;;;;99.05;32.97;;;;;;;-144.73;100.00;54699.16;4980078;28;20049;-76
2023/12/15 00:39:35;;;;;;;79.72;30.13;;;;;;;-144.73;100.00;54678.63;4982185;28;20493;-76
2023/12/15 00:42:01;;;;;;;82.72;31.02;;;;;;;-144.73;100.00;54723.81;4978119;28;20031;-74
2023/12/15 00:44:26;;;;;;;84.07;33.55;;;;;;;-144.73;100.00;54695.06;4971360;28;20057;-75
2023/12/15 00:46:51;;;;;;;77.88;30.77;;;;;;;-144.73;100.00;54670.44;4977377;28;20030;-75
2023/12/15 00:49:17;;;;;;;83.95;33.10;;;;;;;-144.73;100.00;54727.91;4983611;28;20014;-75
2023/12/15 00:51:42;;;;;;;82.22;32.42;;;;;;;-144.73;100.00;54682.75;4984374;28;20761;-74
2023/12/15 00:54:08;;;;;;;83.80;32.13;;;;;;;-144.73;100.00;54705.31;4983649;28;20030;-75
2023/12/15 00:56:33;;;;;;;91.75;33.97;;;;;;;-144.73;100.00;54686.84;4979541;28;20027;-75
2023/12/15 00:59:01;;;;;;;87.85;32.95;;;;;;;-144.73;100.00;54662.22;4984826;28;20039;-75
2023/12/15 01:01:27;;;;;;;89.70;32.47;;;;;;;-144.73;100.00;54711.47;4983002;28;20030;-75
2023/12/15 01:03:52;;;;;;;78.85;31.80;;;;;;;-144.73;100.00;54682.75;4984277;28;20038;-75
2023/12/15 01:06:17;;;;;;;75.57;30.05;;;;;;;-144.73;100.00;54670.44;4979212;28;20046;-75
2023/12/15 01:08:43;;;;;;;84.05;29.98;;;;;;;-144.73;100.00;54707.38;4978297;28;20039;-75
2023/12/15 01:11:08;;;;;;;90.15;32.70;;;;;;;-144.73;100.00;54727.91;4981459;28;20038;-75
2023/12/15 01:13:33;;;;;;;86.43;31.25;;;;;;;-144.73;100.00;54727.91;4976538;28;20070;-75
2023/12/15 01:15:59;;;;;;;97.22;33.95;;;;;;;-144.73;100.00;54740.22;4976805;28;20042;-75
2023/12/15 01:18:24;;;;;;;94.50;33.15;;;;;;;-144.73;100.00;54680.69;4972414;28;20042;-75
2023/12/15 01:20:49;;;;;;;82.75;31.65;;;;;;;-144.73;100.00;54670.44;4985599;28;20022;-75
2023/12/15 01:23:15;;;;;;;80.57;32.10;;;;;;;-144.73;100.00;54701.22;4974729;28;20038;-75
2023/12/15 01:25:40;;;;;;;79.25;32.13;;;;;;;-144.73;100.00;54699.16;4979616;28;20026;-75
2023/12/15 01:28:06;;;;;;;91.57;34.88;;;;;;;-144.73;100.00;54719.69;4976016;28;20057;-75
2023/12/15 01:30:31;;;;;;;86.88;32.58;;;;;;;-144.73;100.00;54727.91;4976381;28;20089;-75
2023/12/15 01:32:59;;;;;;;90.32;33.83;;;;;;;-144.73;100.00;54699.16;4967139;28;20189;-75
2023/12/15 01:35:24;;;;;;;93.15;35.22;;;;;;;-144.73;100.00;54670.44;4979615;28;20349;-75
2023/12/15 01:37:49;;;;;;;73.93;29.67;;;;;;;-144.73;100.00;54686.84;4976274;28;20098;-75
2023/12/15 01:40:18;;;;;;;101.55;30.88;;;;;;;-144.73;100.00;54703.28;4979009;28;20045;-76
2023/12/15 01:42:43;;;;;;;92.90;35.15;;;;;;;-144.73;100.00;54752.53;4974712;28;20042;-76
2023/12/15 01:45:09;;;;;;;84.90;33.25;;;;;;;-144.73;100.00;54729.97;4978866;28;20107;-76
2023/12/15 01:47:35;;;;;;;91.15;33.90;;;;;;;-144.73;100.00;54740.22;4984186;28;20034;-76
2023/12/15 01:50:00;;;;;;;81.05;31.00;;;;;;;-144.73;100.00;54715.59;4975453;28;20042;-76
2023/12/15 01:52:26;;;;;;;93.95;33.20;;;;;;;-144.73;100.00;54707.38;4968548;28;20050;-76
2023/12/15 01:54:51;;;;;;;69.70;31.05;;;;;;;-144.73;100.00;54707.38;4975267;28;20106;-76
2023/12/15 01:57:17;;;;;;;91.70;33.42;;;;;;;-144.73;100.00;54707.38;4987108;28;20049;-76
2023/12/15 01:59:50;;;;;;;97.10;34.83;;;;;;;-144.73;100.00;54719.69;4977226;28;20054;-76
2023/12/15 02:02:16;;;;;;;102.72;35.22;;;;;;;-144.73;100.00;54697.13;4977623;28;20034;-76
2023/12/15 02:04:42;;;;;;;79.10;32.00;;;;;;;-144.73;100.00;54711.47;4982777;28;20030;-76
2023/12/15 02:07:10;;;;;;;90.82;32.55;;;;;;;-144.73;100.00;54697.13;4978641;28;20042;-76
2023/12/15 02:09:41;;;;;;;81.53;30.70;;;;;;;-144.73;100.00;54715.59;4979054;28;20065;-76
2023/12/15 02:12:07;;;;;;;95.78;35.22;;;;;;;-144.73;100.00;54678.63;4972615;28;20070;-76
2023/12/15 02:14:32;;;;;;;98.70;34.45;;;;;;;-144.73;100.00;54690.97;4978742;28;20033;-76
2023/12/15 02:16:58;;;;;;;88.47;33.72;;;;;;;-144.73;100.00;54711.47;4972079;28;20051;-76
2023/12/15 02:19:24;;;;;;;82.85;31.77;;;;;;;-144.73;100.00;54711.47;4976159;28;20117;-76
2023/12/15 02:21:50;;;;;;;69.18;29.80;;;;;;;-144.73;100.00;54740.22;4973194;28;20030;-76
2023/12/15 02:24:15;;;;;;;97.03;33.63;;;;;;;-144.73;100.00;54727.91;4984294;28;20304;-76
2023/12/15 02:26:41;;;;;;;87.22;33.28;;;;;;;-144.73;100.00;54703.28;4978491;28;20041;-76
2023/12/15 02:29:06;;;;;;;80.25;32.03;;;;;;;-144.73;100.00;54711.47;4976187;28;20034;-76
2023/12/15 02:31:32;;;;;;;87.68;32.40;;;;;;;-144.73;100.00;54723.81;4978620;28;20026;-76
2023/12/15 02:33:57;;;;;;;85.72;32.30;;;;;;;-144.73;100.00;54682.75;4983141;28;20038;-76
2023/12/15 02:36:23;;;;;;;65.07;28.90;;;;;;;-144.73;100.00;54707.38;4970967;28;20033;-76
2023/12/15 02:38:50;;;;;;;84.32;33.42;;;;;;;-144.73;100.00;54719.69;4978610;28;20247;-76
2023/12/15 02:41:15;;;;;;;90.10;33.22;;;;;;;-144.73;100.00;54727.91;4977665;28;20030;-76
2023/12/15 02:43:41;;;;;;;94.20;33.70;;;;;;;-144.73;100.00;54699.16;4977894;28;20082;-76
2023/12/15 02:46:07;;;;;;;94.35;34.63;;;;;;;-144.73;100.00;54709.44;4976867;28;20030;-76
2023/12/15 02:48:33;;;;;;;88.65;32.65;;;;;;;-144.73;100.00;54684.78;4980871;28;20042;-76
2023/12/15 02:50:58;;;;;;;81.25;31.70;;;;;;;-144.73;100.00;54705.31;4984850;28;20027;-76
2023/12/15 02:53:23;;;;;;;92.50;34.63;;;;;;;-144.73;100.00;54725.84;4986030;28;20035;-76
2023/12/15 02:55:49;;;;;;;90.78;35.05;;;;;;;-144.73;100.00;54695.06;4983974;28;20537;-76
2023/12/15 02:58:16;;;;;;;87.40;31.42;;;;;;;-144.73;100.00;54707.38;4978783;28;20066;-76
2023/12/15 03:00:41;;;;;;;84.95;32.72;;;;;;;-144.73;100.00;54732.00;4985729;28;20117;-74
2023/12/15 03:03:07;;;;;;;81.18;31.13;;;;;;;-144.73;100.00;54699.16;4984942;28;20433;-74
2023/12/15 03:05:32;;;;;;;88.55;32.58;;;;;;;-144.73;100.00;54715.59;4983764;28;20057;-74
2023/12/15 03:07:57;;;;;;;64.20;28.70;;;;;;;-144.73;100.00;54703.28;4974237;28;20577;-74
2023/12/15 03:10:23;;;;;;;78.68;31.05;;;;;;;-144.73;100.00;54732.00;4979899;28;20443;-74
2023/12/15 03:12:48;;;;;;;70.35;29.45;;;;;;;-144.73;100.00;54748.44;4977408;28;20093;-74
2023/12/15 03:15:14;;;;;;;70.22;27.58;;;;;;;-144.73;100.00;54744.31;4989286;28;20031;-74
2023/12/15 03:17:39;;;;;;;66.47;28.67;;;;;;;-144.73;100.00;54750.50;4977896;28;20098;-74
2023/12/15 03:20:15;;;;;;;63.65;29.55;;;;;;;-144.73;100.00;54736.13;4976480;28;20034;-74
2023/12/15 03:22:40;;;;;;;56.53;26.48;;;;;;;-144.73;100.00;54705.31;4984522;28;20075;-73
2023/12/15 03:25:06;;;;;;;54.10;25.80;;;;;;;-144.73;100.00;54721.75;4989690;28;20545;-73
2023/12/15 03:27:34;;;;;;;58.17;24.88;;;;;;;-144.73;100.00;54699.16;4978694;28;20069;-73
2023/12/15 03:30:00;;;;;;;64.75;26.33;;;;;;;-144.73;100.00;54744.31;4976564;28;20033;-73
2023/12/15 03:32:26;;;;;;;59.17;26.98;;;;;;;-144.73;100.00;54711.47;4980280;28;20046;-73
2023/12/15 03:34:52;;;;;;;55.17;25.73;;;;;;;-144.73;100.00;54699.16;4987950;28;20034;-73
2023/12/15 03:37:20;;;;;;;58.03;24.75;;;;;;;-144.73;100.00;54744.31;4980659;28;20062;-74
2023/12/15 03:39:45;;;;;;;59.30;27.45;;;;;;;-144.73;100.00;54732.00;4987809;28;20022;-74
2023/12/15 03:42:11;;;;;;;54.42;25.63;;;;;;;-144.73;100.00;54662.22;4982663;28;20088;-74
2023/12/15 03:44:39;;;;;;;59.42;25.77;;;;;;;-144.73;100.00;54736.13;4983256;28;20118;-73
2023/12/15 03:47:05;;;;;;;63.80;28.42;;;;;;;-144.73;100.00;54715.59;4976400;28;20042;-73
2023/12/15 03:49:30;;;;;;;62.22;29.08;;;;;;;-144.73;100.00;54699.16;4979401;28;20022;-74
2023/12/15 03:51:56;;;;;;;61.33;28.35;;;;;;;-144.73;100.00;54744.31;4982422;28;20169;-74
2023/12/15 03:54:21;;;;;;;63.80;27.40;;;;;;;-144.73;100.00;54717.66;4979026;28;20018;-74
2023/12/15 03:56:46;;;;;;;65.88;30.42;;;;;;;-144.73;100.00;54715.59;4975458;28;20035;-74
2023/12/15 03:59:12;;;;;;;65.05;29.33;;;;;;;-144.73;100.00;54725.84;4973414;28;20054;-74
2023/12/15 04:01:37;;;;;;;71.85;31.45;;;;;;;-144.73;100.00;54703.28;4978162;28;20029;-73
2023/12/15 04:04:03;;;;;;;73.70;31.65;;;;;;;-144.73;100.00;54703.28;4998356;28;20053;-74
2023/12/15 04:06:28;;;;;;;73.50;30.48;;;;;;;-144.73;100.00;54744.31;4979655;28;20046;-74
2023/12/15 04:08:54;;;;;;;66.40;30.83;;;;;;;-144.73;100.00;54678.63;4979802;28;20050;-74
2023/12/15 04:11:19;;;;;;;71.57;31.00;;;;;;;-144.73;100.00;54732.00;4977488;28;20039;-74
2023/12/15 04:13:45;;;;;;;68.22;32.67;;;;;;;-144.73;100.00;54732.00;4976564;28;20038;-73
2023/12/15 04:16:11;;;;;;;67.57;31.63;;;;;;;-144.73;100.00;54711.47;4980718;28;20030;-73
2023/12/15 04:18:36;;;;;;;67.22;31.20;;;;;;;-144.73;100.00;54715.59;4979361;28;20035;-73
2023/12/15 04:21:04;;;;;;;76.65;35.00;;;;;;;-144.73;100.00;54742.28;4982474;28;20108;-73
2023/12/15 04:23:32;;;;;;;69.72;32.22;;;;;;;-144.73;100.00;54703.28;4981126;28;20053;-74
2023/12/15 04:25:58;;;;;;;72.60;33.20;;;;;;;-144.73;100.00;54734.06;4974994;28;20046;-73
2023/12/15 04:28:26;;;;;;;73.80;33.22;;;;;;;-144.73;100.00;54707.38;4987797;28;20035;-73
2023/12/15 04:30:55;;;;;;;72.65;33.80;;;;;;;-144.73;100.00;54719.69;4975991;28;20033;-73
2023/12/15 04:33:20;;;;;;;77.68;32.90;;;;;;;-144.73;100.00;54682.75;4988621;28;20035;-75
2023/12/15 04:35:45;;;;;;;69.68;30.30;;;;;;;-144.73;100.00;54740.22;4975838;28;20022;-75
2023/12/15 04:38:11;;;;;;;76.53;34.50;;;;;;;-144.73;100.00;54690.97;4979512;28;20034;-75
2023/12/15 04:40:39;;;;;;;78.30;33.45;;;;;;;-144.73;100.00;54699.16;4983231;28;20022;-74
2023/12/15 04:43:04;;;;;;;69.75;31.70;;;;;;;-144.73;100.00;54715.59;4980956;28;20038;-75
2023/12/15 04:45:30;;;;;;;75.70;31.90;;;;;;;-144.73;100.00;54711.47;4979731;28;20053;-75
2023/12/15 04:47:56;;;;;;;71.43;31.17;;;;;;;-144.73;100.00;54658.13;4983064;28;20059;-75
2023/12/15 04:50:21;;;;;;;82.30;33.08;;;;;;;-144.73;100.00;54637.59;4984769;28;20027;-75
2023/12/15 04:52:47;;;;;;;86.75;33.92;;;;;;;-144.73;100.00;54736.13;4977820;28;20039;-76
2023/12/15 04:55:12;;;;;;;101.22;37.83;;;;;;;-144.73;100.00;54744.31;4975645;28;20424;-75
2023/12/15 04:57:41;;;;;;;91.32;36.50;;;;;;;-144.73;100.00;54732.00;4977869;28;20034;-75
2023/12/15 05:00:07;;;;;;;104.18;38.00;;;;;;;-144.73;100.00;54748.44;4995604;28;20019;-75
2023/12/15 05:02:33;;;;;;;100.28;36.03;;;;;;;-144.73;100.00;54719.69;4980049;28;20090;-75
2023/12/15 05:04:58;;;;;;;100.90;37.65;;;;;;;-144.73;100.00;54686.84;4977501;28;20114;-75
2023/12/15 05:07:23;;;;;;;106.40;38.58;;;;;;;-144.73;100.00;54682.75;4983012;28;20042;-75
2023/12/15 05:09:49;;;;;;;133.73;42.00;;;;;;;-144.73;100.00;54703.28;4976979;28;20117;-75
2023/12/15 05:12:14;;;;;;;123.45;40.28;;;;;;;-144.73;100.00;54740.22;4979706;28;20023;-75
2023/12/15 05:14:40;;;;;;;116.93;41.28;;;;;;;-144.73;100.00;54699.16;4978320;28;20156;-74
2023/12/15 05:17:05;;;;;;;102.63;38.40;;;;;;;-144.73;100.00;54695.06;4984885;28;20038;-75
2023/12/15 05:19:31;;;;;;;162.57;46.72;;;;;;;-144.73;100.00;54719.69;4984352;28;20065;-75
2023/12/15 05:21:56;;;;;;;148.80;44.20;;;;;;;-144.73;100.00;54682.75;4978208;28;20030;-74
2023/12/15 05:24:25;;;;;;;144.10;45.00;;;;;;;-144.73;100.00;54703.28;4983774;28;20018;-74
2023/12/15 05:26:50;;;;;;;130.60;40.83;;;;;;;-144.73;100.00;54699.16;4975635;28;20034;-76
2023/12/15 05:29:15;;;;;;;147.07;45.38;;;;;;;-144.73;100.00;54711.47;4990809;28;20018;-76
2023/12/15 05:31:43;;;;;;;136.38;42.92;;;;;;;-144.73;100.00;54703.28;4977948;28;20458;-76
2023/12/15 05:34:08;;;;;;;127.82;43.67;;;;;;;-144.73;100.00;54705.31;4976688;28;20028;-76
2023/12/15 05:36:34;;;;;;;130.07;41.72;;;;;;;-144.73;100.00;54740.22;4982926;28;20034;-75
2023/12/15 05:38:59;;;;;;;128.55;42.13;;;;;;;-144.73;100.00;54715.59;4981706;28;20122;-76
2023/12/15 05:41:25;;;;;;;151.80;42.90;;;;;;;-144.73;100.00;54715.59;4981123;28;20031;-75
2023/12/15 05:43:50;;;;;;;145.30;44.35;;;;;;;-144.73;100.00;54727.91;4974549;28;20039;-76
2023/12/15 05:46:19;;;;;;;151.13;45.05;;;;;;;-144.73;100.00;54695.06;4989501;28;20026;-77
2023/12/15 05:48:45;;;;;;;154.68;45.50;;;;;;;-144.73;100.00;54736.13;4975680;28;20070;-76
2023/12/15 05:51:11;;;;;;;127.97;41.35;;;;;;;-144.73;100.00;54760.75;4981420;28;20026;-76
2023/12/15 05:53:36;;;;;;;131.38;41.83;;;;;;;-144.73;100.00;54719.69;4972226;28;20038;-76
2023/12/15 05:56:02;;;;;;;121.55;43.63;;;;;;;-144.73;100.00;54729.97;4976626;28;20031;-76
2023/12/15 05:58:27;;;;;;;136.10;43.67;;;;;;;-144.73;100.00;54703.28;4983781;28;20061;-76
2023/12/15 06:00:52;;;;;;;127.85;41.33;;;;;;;-144.73;100.00;54719.69;4986231;28;20088;-76
2023/12/15 06:03:18;;;;;;;161.20;44.38;;;;;;;-144.73;100.00;54719.69;4978415;28;20062;-76
2023/12/15 06:05:44;;;;;;;132.63;41.67;;;;;;;-144.73;100.00;54732.00;4980511;28;20605;-76
2023/12/15 06:08:10;;;;;;;126.65;41.47;;;;;;;-144.73;100.00;54727.91;4979087;28;20046;-76
2023/12/15 06:10:36;;;;;;;168.50;48.08;;;;;;;-144.73;100.00;54707.38;4980778;28;20095;-75
2023/12/15 06:13:01;;;;;;;153.80;43.67;;;;;;;-144.73;100.00;54734.06;4975871;28;20125;-76
2023/12/15 06:15:26;;;;;;;141.27;42.10;;;;;;;-144.73;100.00;54719.69;4989422;28;20034;-76
2023/12/15 06:17:55;;;;;;;136.60;42.67;;;;;;;-144.73;100.00;54744.31;4986813;28;20402;-76
2023/12/15 06:20:20;;;;;;;160.82;45.10;;;;;;;-144.73;100.00;54719.69;4978902;28;20049;-76
2023/12/15 06:22:45;;;;;;;161.48;46.65;;;;;;;-144.73;100.00;54727.91;4984979;28;20042;-76
2023/12/15 06:25:11;;;;;;;170.88;46.72;;;;;;;-144.73;100.00;54740.22;4981140;28;20042;-76
2023/12/15 06:27:36;;;;;;;168.65;44.42;;;;;;;-144.73;100.00;54703.28;4970248;28;20357;-76
2023/12/15 06:30:02;;;;;;;163.20;47.53;;;;;;;-144.73;100.00;54732.00;4984417;28;20081;-76
2023/12/15 06:32:28;;;;;;;197.07;51.03;;;;;;;-144.73;100.00;54707.38;4973316;28;20038;-76
2023/12/15 06:34:53;;;;;;;191.07;53.38;;;;;;;-144.73;100.00;54715.59;4979548;28;20026;-76
2023/12/15 06:37:18;;;;;;;221.07;56.80;;;;;;;-144.73;100.00;54699.16;4984072;28;20066;-76
2023/12/15 06:39:45;;;;;;;210.73;52.50;;;;;;;-144.73;100.00;54703.28;4977806;28;20041;-76
2023/12/15 06:42:11;;;;;;;226.27;53.40;;;;;;;-144.73;100.00;54723.81;4984463;28;20061;-76
2023/12/15 06:44:37;;;;;;;246.88;57.15;;;;;;;-144.73;100.00;54723.81;4981505;28;20035;-76
2023/12/15 06:47:03;;;;;;;241.98;58.13;;;;;;;-144.73;100.00;54699.16;4980150;28;20065;-76
2023/12/15 06:49:31;;;;;;;225.50;55.35;;;;;;;-144.73;100.00;54707.38;4980716;28;20018;-77
2023/12/15 06:51:57;;;;;;;256.25;57.53;;;;;;;-144.73;100.00;54736.13;4981526;28;20020;-76
2023/12/15 06:54:23;;;;;;;236.77;55.47;;;;;;;-144.73;100.00;54732.00;4977036;28;20382;-77
2023/12/15 06:56:48;;;;;;;221.57;52.75;;;;;;;-144.73;100.00;54697.13;4981165;28;20030;-77
2023/12/15 06:59:13;;;;;;;238.07;55.28;;;;;;;-144.73;100.00;54699.16;4974591;28;20010;-77
2023/12/15 07:01:39;;;;;;;232.65;54.88;;;;;;;-144.73;100.00;54752.53;4986963;28;20018;-77
2023/12/15 07:04:04;;;;;;;231.10;52.75;;;;;;;-144.73;100.00;54695.06;4981838;28;20039;-77
2023/12/15 07:06:30;;;;;;;258.83;55.80;;;;;;;-144.73;100.00;54703.28;4982410;28;20035;-77
2023/12/15 07:08:55;;;;;;;282.08;62.67;;;;;;;-144.73;100.00;54688.91;4978822;28;20077;-77
2023/12/15 07:11:21;;;;;;;208.75;52.60;;;;;;;-144.73;100.00;54703.28;4973231;28;20029;-77
2023/12/15 07:13:46;;;;;;;237.05;57.55;;;;;;;-144.73;100.00;54703.28;4976295;28;20038;-77
2023/12/15 07:16:12;;;;;;;287.13;65.35;;;;;;;-144.73;100.00;54748.44;4982945;28;20065;-77
2023/12/15 07:18:37;;;;;;;285.85;61.20;;;;;;;-144.73;100.00;54727.91;4983313;28;20038;-77
2023/12/15 07:21:03;;;;;;;270.92;58.95;;;;;;;-144.73;100.00;54740.22;4978118;28;20093;-76
2023/12/15 07:23:28;;;;;;;306.10;63.53;;;;;;;-144.73;100.00;54725.84;4977778;28;20046;-76
2023/12/15 07:25:53;;;;;;;276.23;62.90;;;;;;;-144.73;100.00;54719.69;4978953;28;20061;-76
2023/12/15 07:28:19;;;;;;;298.55;65.50;;;;;;;-144.73;100.00;54736.13;4983081;28;20493;-76
2023/12/15 07:30:44;;;;;;;286.52;70.28;;;;;;;-144.73;100.00;54719.69;4984159;28;20421;-77
2023/12/15 07:33:10;;;;;;;309.27;68.85;;;;;;;-144.73;100.00;54715.59;4984951;28;20041;-77
2023/12/15 07:35:35;;;;;;;259.05;58.78;;;;;;;-144.73;100.00;54773.06;4981249;28;20023;-78
2023/12/15 07:38:01;;;;;;;322.38;65.32;;;;;;;-144.73;100.00;54695.06;4980581;28;20105;-76
2023/12/15 07:40:27;;;;;;;323.80;71.00;;;;;;;-144.73;100.00;54736.13;4984097;28;20030;-76
2023/12/15 07:42:53;;;;;;;324.33;67.55;;;;;;;-144.73;100.00;54738.16;4983112;28;20030;-76
2023/12/15 07:45:18;;;;;;;325.30;67.28;;;;;;;-144.73;100.00;54742.28;4980554;28;20037;-76
2023/12/15 07:47:43;;;;;;;316.02;69.80;;;;;;;-144.73;100.00;54727.91;4983188;28;20042;-74
2023/12/15 07:50:09;;;;;;;336.13;68.55;;;;;;;-144.73;100.00;54719.69;4978505;28;20031;-74
2023/12/15 07:52:34;;;;;;;354.10;72.60;;;;;;;-144.73;100.00;54738.16;4988572;28;20073;-74
2023/12/15 07:55:00;;;;;;;389.75;76.18;;;;;;;-144.73;100.00;54703.28;4981922;28;20026;-74
2023/12/15 07:57:25;;;;;;;308.48;68.97;;;;;;;-144.73;100.00;54711.47;4983253;28;20120;-74
2023/12/15 07:59:51;;;;;;;361.52;75.63;;;;;;;-144.73;100.00;54690.97;4980798;28;20058;-74
2023/12/15 08:02:19;;;;;;;382.23;78.90;;;;;;;-144.73;100.00;54736.13;4980625;28;20038;-74
2023/12/15 08:04:45;;;;;;;371.88;76.75;;;;;;;-144.73;100.00;54719.69;4985802;28;20065;-75
2023/12/15 08:07:11;;;;;;;372.27;75.75;;;;;;;-144.73;100.00;54688.91;4989063;28;20066;-74
2023/12/15 08:09:37;;;;;;;435.50;82.93;;;;;;;-144.73;100.00;54707.38;4984756;28;20023;-74
2023/12/15 08:12:02;;;;;;;385.50;77.93;;;;;;;-144.73;100.00;54740.22;4977598;28;20068;-74
2023/12/15 08:14:28;;;;;;;424.73;84.05;;;;;;;-144.73;100.00;54682.75;4972538;28;20027;-74
2023/12/15 08:16:54;;;;;;;384.33;78.70;;;;;;;-144.73;100.00;54703.28;4978689;28;20089;-74
2023/12/15 08:19:19;;;;;;;398.88;78.00;;;;;;;-144.73;100.00;54732.00;4976888;28;20023;-75
2023/12/15 08:21:45;;;;;;;371.77;77.10;;;;;;;-144.73;100.00;54768.97;4981644;28;20049;-74
2023/12/15 08:24:10;;;;;;;311.15;69.88;;;;;;;-144.73;100.00;54732.00;4980842;28;20031;-74
2023/12/15 08:26:35;;;;;;;344.63;73.80;;;;;;;-144.73;100.00;54682.75;4977219;28;20035;-73
2023/12/15 08:29:01;;;;;;;329.67;72.25;;;;;;;-144.73;100.00;54740.22;4982768;28;20069;-74
2023/12/15 08:31:26;;;;;;;362.23;76.00;;;;;;;-144.73;100.00;54736.13;4980094;28;20030;-74
2023/12/15 08:33:52;;;;;;;276.95;64.25;;;;;;;-144.73;100.00;54725.84;4980071;28;20042;-74
2023/12/15 08:36:18;;;;;;;295.88;68.30;;;;;;;-144.73;100.00;54709.44;4983638;28;20097;-74
2023/12/15 08:38:43;;;;;;;313.10;70.00;;;;;;;-144.73;100.00;54752.53;4979128;28;20055;-75
2023/12/15 08:41:10;;;;;;;330.48;74.28;;;;;;;-144.73;100.00;54723.81;4976356;28;20489;-74
2023/12/15 08:43:35;;;;;;;323.42;70.88;;;;;;;-144.73;100.00;54756.66;4977241;28;20041;-74
2023/12/15 08:46:01;;;;;;;275.52;67.35;;;;;;;-144.73;100.00;54736.13;4981033;28;20121;-74
2023/12/15 08:48:27;;;;;;;294.73;70.18;;;;;;;-144.73;100.00;54748.44;4980991;28;20493;-74
2023/12/15 08:50:53;;;;;;;309.05;72.30;;;;;;;-144.73;100.00;54711.47;4979877;28;20030;-74
2023/12/15 08:53:18;;;;;;;274.35;64.45;;;;;;;-144.73;100.00;54727.91;4979946;28;20046;-74
2023/12/15 08:55:45;;;;;;;249.98;61.67;;;;;;;-144.73;100.00;54727.91;4981415;28;20026;-74
2023/12/15 08:58:10;;;;;;;258.60;60.17;;;;;;;-144.73;100.00;54699.16;4979559;28;20441;-75
2023/12/15 09:00:36;;;;;;;210.45;56.35;;;;;;;-144.73;100.00;54723.81;4983134;28;20022;-74
2023/12/15 09:03:02;;;;;;;248.65;63.58;;;;;;;-144.73;100.00;54736.13;4977956;28;20038;-74
2023/12/15 09:05:28;;;;;;;223.68;55.65;;;;;;;-144.73;100.00;54785.38;4982306;28;20030;-74
2023/12/15 09:07:53;;;;;;;238.73;58.17;;;;;;;-144.73;100.00;54734.06;4974576;28;20045;-73
2023/12/15 09:10:20;;;;;;;200.85;53.65;;;;;;;-144.73;100.00;54719.69;4987541;28;20053;-74
2023/12/15 09:12:46;;;;;;;201.50;57.40;;;;;;;-144.73;100.00;54690.97;4979012;28;20062;-74
2023/12/15 09:15:12;;;;;;;208.88;54.88;;;;;;;-144.73;100.00;54715.59;4984184;28;20034;-74
2023/12/15 09:17:41;;;;;;;213.38;54.72;;;;;;;-144.73;100.00;54690.97;4976390;28;20077;-74
2023/12/15 09:20:10;;;;;;;203.10;54.38;;;;;;;-144.73;100.00;54690.97;4975967;28;20042;-74
2023/12/15 09:22:35;;;;;;;182.90;52.85;;;;;;;-144.73;100.00;54744.31;4974888;28;20174;-74
2023/12/15 09:25:01;;;;;;;187.10;50.42;;;;;;;-144.73;100.00;54723.81;4976608;28;20121;-76
2023/12/15 09:27:27;;;;;;;188.77;54.33;;;;;;;-144.73;100.00;54701.22;4972479;28;20038;-75
2023/12/15 09:29:52;;;;;;;180.18;50.10;;;;;;;-144.73;100.00;54721.75;4982855;28;20408;-75
2023/12/15 09:32:18;;;;;;;177.85;50.22;;;;;;;-144.73;100.00;54723.81;4974006;28;20058;-75
2023/12/15 09:34:43;;;;;;;138.93;43.65;;;;;;;-144.73;100.00;54736.13;4982191;28;20052;-74
2023/12/15 09:37:09;;;;;;;156.98;45.30;;;;;;;-144.73;100.00;54719.69;4979857;28;20042;-74
2023/12/15 09:39:34;;;;;;;173.75;46.38;;;;;;;-144.73;100.00;54732.00;4972378;28;20041;-74
2023/12/15 09:41:59;;;;;;;169.20;48.17;;;;;;;-144.73;100.00;54744.31;4981978;28;20061;-75
2023/12/15 09:44:25;;;;;;;168.20;49.50;;;;;;;-144.73;100.00;54742.28;4980545;28;20038;-75
2023/12/15 09:46:50;;;;;;;170.65;47.63;;;;;;;-144.73;100.00;54732.00;4982424;28;20112;-75
2023/12/15 09:49:18;;;;;;;161.55;46.30;;;;;;;-144.73;100.00;54717.66;4972393;28;20118;-74
2023/12/15 09:51:49;;;;;;;164.90;46.38;;;;;;;-144.73;100.00;54748.44;4978358;28;20033;-75
2023/12/15 09:54:15;;;;;;;176.32;51.35;;;;;;;-144.73;100.00;54672.47;4970603;28;20022;-75
2023/12/15 09:56:41;;;;;;;160.77;49.58;;;;;;;-144.73;100.00;54711.47;4969809;28;20041;-74
2023/12/15 09:59:08;;;;;;;164.60;50.97;;;;;;;-144.73;100.00;54703.28;4976332;28;20030;-75
2023/12/15 10:01:33;;;;;;;197.48;53.58;;;;;;;-144.73;100.00;54748.44;4980956;28;20132;-75
2023/12/15 10:03:58;;;;;;;175.68;51.40;;;;;;;-144.73;100.00;54748.44;4977698;28;20039;-75
2023/12/15 10:06:25;;;;;;;188.20;49.83;;;;;;;-144.73;100.00;54719.69;4973842;28;20041;-75
2023/12/15 10:08:51;;;;;;;184.95;51.95;;;;;;;-144.73;100.00;54715.59;4975346;28;20046;-75
2023/12/15 10:11:18;;;;;;;178.23;48.55;;;;;;;-144.73;100.00;54719.69;4976955;28;20031;-75
2023/12/15 10:13:43;;;;;;;191.32;52.60;;;;;;;-144.73;100.00;54732.00;4982682;28;20038;-75
2023/12/15 10:16:09;;;;;;;176.63;48.78;;;;;;;-144.73;100.00;54723.81;4972103;28;20490;-75
2023/12/15 10:18:36;;;;;;;170.98;53.25;;;;;;;-144.73;100.00;54723.81;4975695;28;20073;-74
2023/12/15 10:21:04;;;;;;;194.18;51.35;;;;;;;-144.73;100.00;54719.69;4975315;28;20026;-75
2023/12/15 10:23:31;;;;;;;177.30;49.25;;;;;;;-144.73;100.00;54740.22;4977915;28;20042;-75
2023/12/15 10:26:03;;;;;;;182.98;50.22;;;;;;;-144.73;100.00;54732.00;4977487;28;20038;-75
2023/12/15 10:28:38;;;;;;;196.23;55.88;;;;;;;-144.73;100.00;54725.84;4972421;28;20035;-76
2023/12/15 10:31:04;;;;;;;229.10;54.28;;;;;;;-144.73;100.00;54732.00;4969382;28;20026;-75
2023/12/15 10:33:30;;;;;;;186.77;51.50;;;;;;;-144.73;100.00;54736.13;4976952;28;20043;-75
2023/12/15 10:35:58;;;;;;;181.90;49.45;;;;;;;-144.73;100.00;54744.31;4974280;28;20042;-74
2023/12/15 10:38:24;;;;;;;174.35;50.95;;;;;;;-144.73;100.00;54727.91;4980977;28;20398;-75
2023/12/15 10:40:50;;;;;;;173.88;48.67;;;;;;;-144.73;100.00;54740.22;4978696;28;20043;-74
2023/12/15 10:43:16;;;;;;;172.73;48.33;;;;;;;-144.73;100.00;54748.44;4975184;28;20039;-74